Time;durP1;ratioP1;P1;durP2;ratioP2;P2;SDS_P1;SDS_P2;PMS_P1;PMS_P2;Temp;Humidity;BMP_temperature;BMP_pressure;BME280_temperature;BME280_humidity;BME280_pressure;Samples;Min_cycle;Max_cycle;Signal;HPM_P1;HPM_P2
2021/03/14 00:00:17;;;;;;;12.30;2.80;;;4.30;99.90;;;;;;5080807;28;20231;-61
2021/03/14 00:02:45;;;;;;;6.40;2.37;;;4.30;99.90;;;;;;5067605;28;20603;-61
2021/03/14 00:05:13;;;;;;;4.63;2.13;;;4.30;99.90;;;;;;5072220;28;20290;-60
2021/03/14 00:07:41;;;;;;;13.43;2.70;;;4.20;99.90;;;;;;5068044;28;20195;-61
2021/03/14 00:10:11;;;;;;;4.17;2.37;;;4.20;99.90;;;;;;5073176;28;20747;-60
2021/03/14 00:12:39;;;;;;;4.20;2.77;;;4.20;99.90;;;;;;5072549;28;20196;-60
2021/03/14 00:15:08;;;;;;;6.37;2.53;;;4.20;99.90;;;;;;5071369;28;20269;-60
2021/03/14 00:17:36;;;;;;;9.03;2.63;;;4.10;99.90;;;;;;5067797;28;20216;-60
2021/03/14 00:20:05;;;;;;;3.23;2.10;;;4.10;99.90;;;;;;5066177;28;20192;-60
2021/03/14 00:22:33;;;;;;;3.40;2.17;;;4.10;99.90;;;;;;5065335;28;20298;-61
2021/03/14 00:25:00;;;;;;;7.40;2.67;;;4.00;99.90;;;;;;5065159;28;20303;-61
2021/03/14 00:27:32;;;;;;;6.93;2.40;;;4.00;99.90;;;;;;5064066;28;20196;-60
2021/03/14 00:29:59;;;;;;;9.83;2.70;;;3.90;99.90;;;;;;5070866;28;20310;-60
2021/03/14 00:32:26;;;;;;;5.73;2.60;;;3.90;99.90;;;;;;5071132;28;20195;-61
2021/03/14 00:34:54;;;;;;;5.00;2.63;;;4.00;99.90;;;;;;5065402;28;20190;-60
2021/03/14 00:37:22;;;;;;;6.50;2.43;;;4.00;99.90;;;;;;5065826;28;20200;-60
2021/03/14 00:39:49;;;;;;;4.33;2.90;;;3.90;99.90;;;;;;5066514;28;20220;-60
2021/03/14 00:42:18;;;;;;;9.37;2.60;;;3.90;99.90;;;;;;5066294;28;20742;-60
2021/03/14 00:44:46;;;;;;;10.93;3.17;;;3.90;99.90;;;;;;5075232;28;20226;-60
2021/03/14 00:47:13;;;;;;;11.17;2.97;;;3.80;99.90;;;;;;5072356;28;20242;-60
2021/03/14 00:49:41;;;;;;;4.33;2.80;;;3.80;99.90;;;;;;5066467;28;20236;-61
2021/03/14 00:52:08;;;;;;;7.10;2.40;;;3.80;99.90;;;;;;5067035;28;20210;-61
2021/03/14 00:54:36;;;;;;;3.87;2.63;;;3.80;99.90;;;;;;5067551;28;20606;-60
2021/03/14 00:57:04;;;;;;;8.10;2.53;;;3.80;99.90;;;;;;5071108;28;20278;-60
2021/03/14 00:59:31;;;;;;;7.27;2.50;;;3.70;99.90;;;;;;5069519;28;20373;-60
2021/03/14 01:02:01;;;;;;;14.27;3.10;;;3.70;99.90;;;;;;5070147;28;20188;-60
2021/03/14 01:04:29;;;;;;;5.27;2.57;;;3.70;99.90;;;;;;5070858;28;20223;-61
2021/03/14 01:06:56;;;;;;;9.17;2.70;;;3.70;99.90;;;;;;5082567;28;20287;-60
2021/03/14 01:09:24;;;;;;;7.73;2.20;;;3.70;99.90;;;;;;5071724;28;20273;-61
2021/03/14 01:11:51;;;;;;;11.17;2.53;;;3.60;99.90;;;;;;5071536;28;20223;-60
2021/03/14 01:14:18;;;;;;;4.33;2.50;;;3.60;99.90;;;;;;5072180;28;20227;-61
2021/03/14 01:16:46;;;;;;;10.93;2.60;;;3.60;99.90;;;;;;5069642;28;20251;-61
2021/03/14 01:19:14;;;;;;;8.23;2.70;;;3.60;99.90;;;;;;5054506;28;20632;-61
2021/03/14 01:21:42;;;;;;;8.60;2.50;;;3.50;99.90;;;;;;5077028;28;20192;-61
2021/03/14 01:24:10;;;;;;;4.53;2.37;;;3.50;99.90;;;;;;5077885;28;20287;-61
2021/03/14 01:26:37;;;;;;;4.70;2.63;;;3.50;99.90;;;;;;5070512;28;20269;-61
2021/03/14 01:29:06;;;;;;;7.70;2.43;;;3.50;99.90;;;;;;5070863;28;20204;-60
2021/03/14 01:31:33;;;;;;;8.67;2.97;;;3.40;99.90;;;;;;5060909;28;20579;-61
2021/03/14 01:34:01;;;;;;;8.60;2.37;;;3.40;99.90;;;;;;5071757;28;20189;-61
2021/03/14 01:36:29;;;;;;;7.70;2.40;;;3.50;99.90;;;;;;5070211;28;20220;-60
2021/03/14 01:38:56;;;;;;;5.70;2.70;;;3.50;99.90;;;;;;5070092;28;20290;-60
2021/03/14 01:41:24;;;;;;;4.70;2.60;;;3.60;99.90;;;;;;5052253;28;20188;-60
2021/03/14 01:43:51;;;;;;;13.40;2.93;;;3.60;99.90;;;;;;5072030;28;20184;-61
2021/03/14 01:46:19;;;;;;;5.47;2.50;;;3.60;99.90;;;;;;5068278;28;20243;-61
2021/03/14 01:48:47;;;;;;;11.60;2.47;;;3.60;99.90;;;;;;5068847;28;20250;-61
2021/03/14 01:51:14;;;;;;;9.93;2.50;;;3.50;99.90;;;;;;5077097;28;20192;-61
2021/03/14 01:53:43;;;;;;;8.53;2.40;;;3.50;99.90;;;;;;5070881;28;20269;-60
2021/03/14 01:56:10;;;;;;;6.67;2.67;;;3.60;99.90;;;;;;5073096;28;20204;-61
2021/03/14 01:58:41;;;;;;;5.17;3.10;;;3.50;99.90;;;;;;5070145;28;20226;-61
2021/03/14 02:01:12;;;;;;;7.07;2.20;;;3.50;99.90;;;;;;5067518;28;20300;-61
2021/03/14 02:03:39;;;;;;;5.27;2.70;;;3.50;99.90;;;;;;5082465;28;20199;-61
2021/03/14 02:06:07;;;;;;;6.17;2.50;;;3.50;99.90;;;;;;5067858;28;20687;-61
2021/03/14 02:08:35;;;;;;;9.50;2.40;;;3.40;99.90;;;;;;5079437;28;20291;-61
2021/03/14 02:11:04;;;;;;;9.67;2.77;;;3.40;99.90;;;;;;5082252;28;20195;-61
2021/03/14 02:13:34;;;;;;;7.17;2.40;;;3.40;99.90;;;;;;5076924;28;20230;-61
2021/03/14 02:16:07;;;;;;;6.87;2.20;;;3.50;99.90;;;;;;5073767;28;20224;-61
2021/03/14 02:18:36;;;;;;;7.07;2.57;;;3.50;99.90;;;;;;5071146;28;20196;-60
2021/03/14 02:21:05;;;;;;;5.87;2.57;;;3.50;99.90;;;;;;5069414;28;20712;-60
2021/03/14 02:23:44;;;;;;;8.20;2.33;;;3.50;99.90;;;;;;5055019;28;20212;-61
2021/03/14 02:26:18;;;;;;;5.37;2.20;;;3.50;99.90;;;;;;5075443;28;20680;-61
2021/03/14 02:28:48;;;;;;;6.37;2.60;;;3.50;99.90;;;;;;5069087;28;20199;-60
2021/03/14 02:31:19;;;;;;;8.97;2.30;;;3.40;99.90;;;;;;5071078;28;20291;-61
2021/03/14 02:33:53;;;;;;;8.90;3.17;;;3.40;99.90;;;;;;5071962;28;20197;-60
2021/03/14 02:36:22;;;;;;;7.33;2.30;;;3.40;99.90;;;;;;5069897;28;20278;-60
2021/03/14 02:38:50;;;;;;;6.53;2.33;;;3.50;99.90;;;;;;5068736;28;20234;-60
2021/03/14 02:41:18;;;;;;;7.83;2.40;;;3.40;99.90;;;;;;5073673;28;20196;-61
2021/03/14 02:43:48;;;;;;;10.40;2.70;;;3.40;99.90;;;;;;5067796;28;20619;-61
2021/03/14 02:46:16;;;;;;;9.17;2.27;;;3.40;99.90;;;;;;5059993;28;20315;-60
2021/03/14 02:48:44;;;;;;;4.37;2.43;;;3.30;99.90;;;;;;5072535;28;20242;-60
2021/03/14 02:51:13;;;;;;;8.97;2.97;;;3.30;99.90;;;;;;5070557;28;20241;-61
2021/03/14 02:53:41;;;;;;;7.40;2.43;;;3.30;99.90;;;;;;5068232;28;20195;-61
2021/03/14 02:56:10;;;;;;;5.97;2.10;;;3.30;99.90;;;;;;5072767;28;20188;-60
2021/03/14 02:58:39;;;;;;;3.90;2.43;;;3.20;99.90;;;;;;5067935;28;20818;-61
2021/03/14 03:01:09;;;;;;;8.73;2.70;;;3.30;99.90;;;;;;5071865;28;20196;-61
2021/03/14 03:03:37;;;;;;;7.97;2.73;;;3.30;99.90;;;;;;5071475;28;20188;-61
2021/03/14 03:06:05;;;;;;;11.07;3.00;;;3.20;99.90;;;;;;5080642;28;20572;-61
2021/03/14 03:08:34;;;;;;;7.13;2.43;;;3.20;99.90;;;;;;5072035;28;20260;-61
2021/03/14 03:11:05;;;;;;;5.33;2.50;;;3.20;99.90;;;;;;5069395;28;20224;-60
2021/03/14 03:13:35;;;;;;;6.00;2.20;;;3.20;99.90;;;;;;5071231;28;20293;-61
2021/03/14 03:16:06;;;;;;;7.73;2.50;;;3.10;99.90;;;;;;5073431;28;20220;-61
2021/03/14 03:18:34;;;;;;;15.40;2.67;;;3.10;99.90;;;;;;5075592;28;20235;-61
2021/03/14 03:21:02;;;;;;;7.97;2.30;;;3.10;99.90;;;;;;5068237;28;20203;-60
2021/03/14 03:23:30;;;;;;;8.17;2.40;;;3.10;99.90;;;;;;5074763;28;20223;-61
2021/03/14 03:26:00;;;;;;;10.13;2.60;;;3.10;99.90;;;;;;5074825;28;20219;-60
2021/03/14 03:28:27;;;;;;;7.53;2.67;;;3.10;99.90;;;;;;5077603;28;20286;-60
2021/03/14 03:30:56;;;;;;;7.90;2.70;;;3.20;99.90;;;;;;5068535;28;20666;-61
2021/03/14 03:33:24;;;;;;;13.13;2.70;;;3.20;99.90;;;;;;5065990;28;20603;-61
2021/03/14 03:35:53;;;;;;;4.87;2.63;;;3.20;99.90;;;;;;5070512;28;20252;-61
2021/03/14 03:38:20;;;;;;;11.23;2.63;;;3.30;99.90;;;;;;5070594;28;20658;-62
2021/03/14 03:40:48;;;;;;;8.67;2.47;;;3.30;99.90;;;;;;5063627;28;20295;-61
2021/03/14 03:43:20;;;;;;;8.90;2.40;;;3.30;99.90;;;;;;5068369;28;20230;-61
2021/03/14 03:45:50;;;;;;;11.67;2.80;;;3.30;99.90;;;;;;5074988;28;20226;-61
2021/03/14 03:48:23;;;;;;;10.87;2.90;;;3.30;99.90;;;;;;5071178;28;20196;-61
2021/03/14 03:50:55;;;;;;;10.93;2.80;;;3.30;99.90;;;;;;5070682;28;20650;-61
2021/03/14 03:53:23;;;;;;;9.77;2.60;;;3.30;99.90;;;;;;5068659;28;20279;-61
2021/03/14 03:55:52;;;;;;;9.37;2.43;;;3.40;99.90;;;;;;5071192;28;20711;-61
2021/03/14 03:58:22;;;;;;;3.37;2.30;;;3.50;99.90;;;;;;5067743;28;20206;-61
2021/03/14 04:00:51;;;;;;;7.80;2.40;;;3.50;99.90;;;;;;5065569;28;20749;-61
2021/03/14 04:03:20;;;;;;;5.40;2.60;;;3.50;99.90;;;;;;5066310;28;20192;-60
2021/03/14 04:05:49;;;;;;;5.53;2.30;;;3.50;99.90;;;;;;5082997;28;20257;-61
2021/03/14 04:08:20;;;;;;;10.30;2.50;;;3.50;99.90;;;;;;5076928;28;20184;-60
2021/03/14 04:10:48;;;;;;;10.13;2.63;;;3.40;99.90;;;;;;5070456;28;20722;-61
2021/03/14 04:13:16;;;;;;;9.27;2.60;;;3.40;99.90;;;;;;5075256;28;20204;-61
2021/03/14 04:15:44;;;;;;;15.03;2.53;;;3.40;99.90;;;;;;5076290;28;20228;-61
2021/03/14 04:18:12;;;;;;;8.43;3.20;;;3.40;99.90;;;;;;5069129;28;20689;-61
2021/03/14 04:20:41;;;;;;;7.37;2.70;;;3.50;99.90;;;;;;5067873;28;20747;-61
2021/03/14 04:23:12;;;;;;;20.93;3.40;;;3.60;99.90;;;;;;5067984;28;20224;-61
2021/03/14 04:25:42;;;;;;;10.90;3.03;;;3.70;99.90;;;;;;5073717;28;20318;-61
2021/03/14 04:28:10;;;;;;;7.20;2.60;;;3.70;99.90;;;;;;5069436;28;20219;-61
2021/03/14 04:30:38;;;;;;;10.00;2.60;;;3.80;99.90;;;;;;5075286;28;20187;-61
2021/03/14 04:33:06;;;;;;;10.43;3.13;;;3.80;99.90;;;;;;5067260;28;20291;-61
2021/03/14 04:35:35;;;;;;;7.27;3.10;;;3.90;99.90;;;;;;5066300;28;20202;-61
2021/03/14 04:38:05;;;;;;;7.47;3.30;;;3.90;99.90;;;;;;5067269;28;20566;-61
2021/03/14 04:40:34;;;;;;;9.17;3.07;;;3.90;99.90;;;;;;5071995;28;20195;-61
2021/03/14 04:43:03;;;;;;;7.27;3.47;;;3.90;99.90;;;;;;5066124;28;20707;-61
2021/03/14 04:45:32;;;;;;;12.17;3.40;;;4.00;99.90;;;;;;5069367;28;20219;-61
2021/03/14 04:48:00;;;;;;;10.47;3.47;;;4.00;99.90;;;;;;5067776;28;20283;-60
2021/03/14 04:50:29;;;;;;;9.23;3.03;;;4.00;99.90;;;;;;5073209;28;20200;-61
2021/03/14 04:53:00;;;;;;;7.57;3.03;;;3.90;99.90;;;;;;5066927;28;20196;-60
2021/03/14 04:55:29;;;;;;;11.60;3.47;;;3.90;99.90;;;;;;5073325;28;20294;-60
2021/03/14 04:57:58;;;;;;;14.83;4.10;;;3.90;99.90;;;;;;5067027;28;20275;-60
2021/03/14 05:00:28;;;;;;;7.80;3.10;;;3.90;99.90;;;;;;5066143;28;20228;-63
2021/03/14 05:02:58;;;;;;;8.23;2.67;;;3.90;99.90;;;;;;5065115;28;20287;-61
2021/03/14 05:05:26;;;;;;;6.47;3.00;;;3.80;99.90;;;;;;5064705;28;20208;-61
2021/03/14 05:07:56;;;;;;;5.07;3.00;;;3.70;99.90;;;;;;5065538;28;20265;-60
2021/03/14 05:10:25;;;;;;;8.53;3.30;;;3.60;99.90;;;;;;5064253;28;20287;-61
2021/03/14 05:12:52;;;;;;;7.07;3.40;;;3.60;99.90;;;;;;5062452;28;20231;-60
2021/03/14 05:15:20;;;;;;;7.77;3.60;;;3.50;99.90;;;;;;5067649;28;20319;-60
2021/03/14 05:17:49;;;;;;;7.50;3.60;;;3.50;99.90;;;;;;5067978;28;20211;-60
2021/03/14 05:20:19;;;;;;;6.03;3.83;;;3.50;99.90;;;;;;5068283;28;20258;-60
2021/03/14 05:22:49;;;;;;;6.37;4.40;;;3.40;99.90;;;;;;5072053;28;20197;-60
2021/03/14 05:25:18;;;;;;;8.33;4.43;;;3.40;99.90;;;;;;5071188;28;20785;-60
2021/03/14 05:27:49;;;;;;;6.83;4.13;;;3.40;99.90;;;;;;5072884;28;20249;-60
2021/03/14 05:30:25;;;;;;;10.10;4.53;;;3.40;99.90;;;;;;5066496;28;20789;-60
2021/03/14 05:32:55;;;;;;;12.70;5.47;;;3.40;99.90;;;;;;5066315;28;20196;-60
2021/03/14 05:35:24;;;;;;;13.50;5.50;;;3.40;99.90;;;;;;5066666;28;20250;-60
2021/03/14 05:37:51;;;;;;;12.27;5.70;;;3.40;99.90;;;;;;5080206;28;20199;-60
2021/03/14 05:40:21;;;;;;;10.47;5.53;;;3.40;99.90;;;;;;5066660;28;20203;-60
2021/03/14 05:42:48;;;;;;;9.40;5.67;;;3.50;99.90;;;;;;5071729;28;20206;-60
2021/03/14 05:45:18;;;;;;;9.17;5.83;;;3.50;99.90;;;;;;5066416;28;20624;-60
2021/03/14 05:47:46;;;;;;;10.63;6.00;;;3.60;99.90;;;;;;5069849;28;20184;-60
2021/03/14 05:50:17;;;;;;;11.23;5.80;;;3.60;99.90;;;;;;5070202;28;20291;-60
2021/03/14 05:52:45;;;;;;;13.33;5.87;;;3.60;99.90;;;;;;5075423;28;20283;-60
2021/03/14 05:55:15;;;;;;;12.83;6.10;;;3.60;99.90;;;;;;5071099;28;20188;-60
2021/03/14 05:57:44;;;;;;;14.77;5.50;;;3.60;99.90;;;;;;5070883;28;20195;-60
2021/03/14 06:00:22;;;;;;;14.27;5.87;;;3.60;99.90;;;;;;5074553;28;20294;-60
2021/03/14 06:02:57;;;;;;;12.37;5.60;;;3.60;99.90;;;;;;5062473;28;20208;-60
2021/03/14 06:05:26;;;;;;;16.57;6.00;;;3.70;99.90;;;;;;5074639;28;20214;-60
2021/03/14 06:07:54;;;;;;;14.17;5.63;;;3.70;99.90;;;;;;5070060;28;20219;-60
2021/03/14 06:10:23;;;;;;;17.90;6.13;;;3.80;99.90;;;;;;5080426;28;20719;-60
2021/03/14 06:12:50;;;;;;;8.53;5.37;;;3.80;99.90;;;;;;5072568;28;20207;-60
2021/03/14 06:15:19;;;;;;;13.73;6.00;;;3.80;99.90;;;;;;5081441;28;20650;-60
2021/03/14 06:17:46;;;;;;;14.33;5.60;;;3.80;99.90;;;;;;5075656;28;20284;-60
2021/03/14 06:20:37;;;;;;;17.70;5.73;;;3.80;99.90;;;;;;5074488;28;20664;-60
2021/03/14 06:23:09;;;;;;;13.90;6.17;;;3.80;99.90;;;;;;5075465;28;20286;-60
2021/03/14 06:25:37;;;;;;;11.13;5.90;;;3.90;99.90;;;;;;5070396;28;20210;-60
2021/03/14 06:28:06;;;;;;;11.23;6.43;;;3.90;99.90;;;;;;5073885;28;20195;-60
2021/03/14 06:30:34;;;;;;;20.47;7.07;;;4.00;99.90;;;;;;5070476;28;20235;-60
2021/03/14 06:33:10;;;;;;;17.77;6.50;;;4.00;99.90;;;;;;5073841;28;20203;-60
2021/03/14 06:35:41;;;;;;;10.03;5.77;;;4.00;99.90;;;;;;5069244;28;20199;-60
2021/03/14 06:38:23;;;;;;;14.63;6.00;;;4.10;99.90;;;;;;5065984;28;20291;-60
2021/03/14 06:40:53;;;;;;;8.57;6.00;;;4.10;99.90;;;;;;5069013;28;20772;-60
2021/03/14 06:43:20;;;;;;;11.60;6.00;;;4.20;99.90;;;;;;5069378;28;20203;-60
2021/03/14 06:45:48;;;;;;;9.67;5.27;;;4.30;99.90;;;;;;5066233;28;20319;-60
2021/03/14 06:48:25;;;;;;;12.23;6.70;;;4.30;99.90;;;;;;5068750;28;20223;-60
2021/03/14 06:50:54;;;;;;;12.70;6.30;;;4.40;99.90;;;;;;5069079;28;20681;-61
2021/03/14 06:53:25;;;;;;;12.13;5.10;;;4.40;99.90;;;;;;5071744;28;20217;-61
2021/03/14 06:56:03;;;;;;;10.60;7.03;;;4.50;99.90;;;;;;5084323;28;20284;-60
2021/03/14 06:58:31;;;;;;;10.47;5.27;;;4.50;99.90;;;;;;5068721;28;20657;-61
2021/03/14 07:01:12;;;;;;;5.87;4.27;;;4.50;99.90;;;;;;5072604;28;20283;-60
2021/03/14 07:03:42;;;;;;;9.47;4.20;;;4.60;99.90;;;;;;5075541;28;20589;-61
2021/03/14 07:06:19;;;;;;;9.03;5.13;;;4.60;99.90;;;;;;5072647;28;20416;-60
2021/03/14 07:08:49;;;;;;;11.77;5.67;;;4.60;99.90;;;;;;5078161;28;20285;-60
2021/03/14 07:11:39;;;;;;;9.37;5.13;;;4.60;99.90;;;;;;5070181;28;20227;-60
2021/03/14 07:14:10;;;;;;;10.50;5.03;;;4.60;99.90;;;;;;5069206;28;20188;-60
2021/03/14 07:16:46;;;;;;;10.23;5.83;;;4.70;99.90;;;;;;5088086;28;20288;-60
2021/03/14 07:19:17;;;;;;;12.33;5.30;;;4.70;99.90;;;;;;5073687;28;20643;-61
2021/03/14 07:21:45;;;;;;;8.63;5.47;;;4.70;99.90;;;;;;5075447;28;20199;-60
2021/03/14 07:24:14;;;;;;;11.23;5.30;;;4.80;99.90;;;;;;5070840;28;20268;-61
2021/03/14 07:26:43;;;;;;;7.60;4.40;;;4.80;99.90;;;;;;5070257;28;20243;-61
2021/03/14 07:29:11;;;;;;;11.03;5.20;;;4.90;99.90;;;;;;5070022;28;20744;-61
2021/03/14 07:31:38;;;;;;;12.93;4.30;;;5.00;99.90;;;;;;5069536;28;20219;-63
2021/03/14 07:34:07;;;;;;;8.00;4.73;;;5.00;99.90;;;;;;5064688;28;20577;-60
2021/03/14 07:36:36;;;;;;;10.63;4.60;;;5.00;99.90;;;;;;5069772;28;20185;-60
2021/03/14 07:39:07;;;;;;;9.20;4.27;;;5.00;99.90;;;;;;5064806;28;20191;-60
2021/03/14 07:41:35;;;;;;;8.50;4.10;;;5.00;99.90;;;;;;5068627;28;20199;-61
2021/03/14 07:44:03;;;;;;;16.43;6.80;;;5.10;99.90;;;;;;5067022;28;20198;-60
2021/03/14 07:46:33;;;;;;;10.77;5.20;;;5.20;99.90;;;;;;5067935;28;20236;-60
2021/03/14 07:49:03;;;;;;;17.33;5.80;;;5.20;99.90;;;;;;5065808;28;20193;-61
2021/03/14 07:51:32;;;;;;;16.67;6.17;;;5.30;99.90;;;;;;5064232;28;20207;-60
2021/03/14 07:54:05;;;;;;;24.53;8.30;;;5.30;99.90;;;;;;5070814;28;20269;-60
2021/03/14 07:56:35;;;;;;;14.80;6.00;;;5.40;99.90;;;;;;5065259;28;20196;-60
2021/03/14 07:59:03;;;;;;;14.10;4.07;;;5.40;99.90;;;;;;5067463;28;20198;-61
2021/03/14 08:01:32;;;;;;;9.03;4.20;;;5.40;99.90;;;;;;5065906;28;20198;-61
2021/03/14 08:04:00;;;;;;;10.13;3.93;;;5.50;99.90;;;;;;5066667;28;21039;-61
2021/03/14 08:06:51;;;;;;;11.73;4.50;;;5.60;99.90;;;;;;5047417;28;20734;-60
2021/03/14 08:09:47;;;;;;;9.10;4.23;;;5.60;99.90;;;;;;5066240;28;20744;-61
2021/03/14 08:12:21;;;;;;;8.93;3.80;;;5.70;99.90;;;;;;5065486;28;20227;-61
2021/03/14 08:14:51;;;;;;;12.67;3.97;;;5.80;99.90;;;;;;5063159;28;20195;-61
2021/03/14 08:17:22;;;;;;;11.23;3.73;;;5.80;99.90;;;;;;5066861;28;20774;-61
2021/03/14 08:19:54;;;;;;;5.63;3.77;;;5.90;99.90;;;;;;5064697;28;20202;-61
2021/03/14 08:22:47;;;;;;;7.63;3.73;;;5.90;99.90;;;;;;5058511;28;20188;-60
2021/03/14 08:25:24;;;;;;;12.17;4.43;;;5.80;99.90;;;;;;5066524;28;20215;-61
2021/03/14 08:28:00;;;;;;;7.93;3.10;;;5.80;99.90;;;;;;5064920;28;20279;-61
2021/03/14 08:30:46;;;;;;;6.20;3.67;;;5.80;99.90;;;;;;5065279;28;20678;-61
2021/03/14 08:33:39;;;;;;;11.87;3.47;;;5.80;99.90;;;;;;5061545;28;20555;-61
2021/03/14 08:36:08;;;;;;;3.73;3.13;;;5.80;99.90;;;;;;5065157;28;20219;-61
2021/03/14 08:38:52;;;;;;;6.57;3.20;;;5.90;99.90;;;;;;5063656;28;20637;-61
2021/03/14 08:41:28;;;;;;;7.37;3.30;;;6.00;99.90;;;;;;5063960;28;20183;-61
2021/03/14 08:44:06;;;;;;;4.63;2.60;;;6.10;99.90;;;;;;5065514;28;20958;-61
2021/03/14 08:47:08;;;;;;;8.37;2.70;;;6.20;99.90;;;;;;5065082;28;20616;-61
2021/03/14 08:49:46;;;;;;;7.97;2.63;;;6.30;99.90;;;;;;5064982;28;20202;-61
2021/03/14 08:52:14;;;;;;;4.17;2.40;;;6.30;99.90;;;;;;5063187;28;20296;-61
2021/03/14 08:54:45;;;;;;;4.27;2.73;;;6.40;99.90;;;;;;5076594;28;20281;-61
2021/03/14 08:57:14;;;;;;;7.07;2.63;;;6.40;99.90;;;;;;5068450;28;20243;-61
2021/03/14 08:59:47;;;;;;;6.43;2.70;;;6.50;99.90;;;;;;5067146;28;20254;-61
2021/03/14 09:02:23;;;;;;;7.07;3.17;;;6.60;99.90;;;;;;5068429;28;20196;-61
2021/03/14 09:04:51;;;;;;;7.27;2.83;;;6.80;99.90;;;;;;5069561;28;20717;-61
2021/03/14 09:07:19;;;;;;;5.63;2.47;;;6.90;99.90;;;;;;5065711;28;20997;-61
2021/03/14 09:09:47;;;;;;;6.17;2.57;;;7.00;99.90;;;;;;5065261;28;20184;-61
2021/03/14 09:12:16;;;;;;;3.23;2.43;;;7.10;99.90;;;;;;5067507;28;20254;-60
2021/03/14 09:14:45;;;;;;;3.73;2.63;;;7.20;99.90;;;;;;5068828;28;20185;-60
2021/03/14 09:17:14;;;;;;;3.30;2.57;;;7.30;99.90;;;;;;5079291;28;20192;-61
2021/03/14 09:19:44;;;;;;;5.03;2.40;;;7.50;99.90;;;;;;5067420;28;20195;-61
2021/03/14 09:22:14;;;;;;;6.10;2.70;;;7.80;99.90;;;;;;5068645;28;20192;-61
2021/03/14 09:24:55;;;;;;;4.63;2.70;;;7.90;99.90;;;;;;5068605;28;20192;-61
2021/03/14 09:27:24;;;;;;;5.97;2.70;;;8.10;99.90;;;;;;5068879;28;20212;-61
2021/03/14 09:29:55;;;;;;;3.97;2.70;;;8.30;99.90;;;;;;5069499;28;20236;-61
2021/03/14 09:32:35;;;;;;;6.77;2.97;;;8.40;99.90;;;;;;5068060;28;20192;-61
2021/03/14 09:35:25;;;;;;;5.30;2.93;;;8.70;99.90;;;;;;5068299;28;20192;-63
2021/03/14 09:37:58;;;;;;;8.60;2.90;;;8.70;99.90;;;;;;5065002;28;20208;-61
2021/03/14 09:40:31;;;;;;;5.97;3.20;;;8.70;99.90;;;;;;5068222;28;20296;-61
2021/03/14 09:43:12;;;;;;;7.33;2.90;;;8.50;99.90;;;;;;5067950;28;20196;-61
2021/03/14 09:45:43;;;;;;;8.37;2.90;;;8.40;99.90;;;;;;5066293;28;20183;-61
2021/03/14 09:48:14;;;;;;;7.73;2.70;;;8.30;99.90;;;;;;5068147;28;20642;-61
2021/03/14 09:50:46;;;;;;;3.63;2.60;;;8.30;99.90;;;;;;5069675;28;20200;-61
2021/03/14 09:53:14;;;;;;;6.47;3.00;;;8.30;99.90;;;;;;5068546;28;20219;-60
2021/03/14 09:55:43;;;;;;;9.77;2.67;;;8.50;99.90;;;;;;5065517;28;20676;-61
2021/03/14 09:58:12;;;;;;;8.30;2.90;;;8.80;99.90;;;;;;5067939;28;20211;-61
2021/03/14 10:00:41;;;;;;;5.77;3.00;;;9.10;99.90;;;;;;5063824;28;20258;-61
2021/03/14 10:03:10;;;;;;;8.80;3.17;;;9.40;99.90;;;;;;5069494;28;20192;-61
2021/03/14 10:05:41;;;;;;;4.87;2.47;;;9.90;99.90;;;;;;5058398;28;20231;-61
2021/03/14 10:08:09;;;;;;;9.03;3.10;;;10.60;99.90;;;;;;5067896;28;20596;-61
2021/03/14 10:10:40;;;;;;;6.97;3.10;;;10.70;99.90;;;;;;5067532;28;20215;-61
2021/03/14 10:13:18;;;;;;;6.87;2.60;;;10.40;99.90;;;;;;5069692;28;20205;-61
2021/03/14 10:15:50;;;;;;;9.63;2.93;;;9.80;99.90;;;;;;5066386;28;20228;-61
2021/03/14 10:18:19;;;;;;;7.40;3.20;;;9.30;99.90;;;;;;5064613;28;20184;-61
2021/03/14 10:20:49;;;;;;;11.63;3.30;;;9.00;99.90;;;;;;5065596;28;20192;-61
2021/03/14 10:23:22;;;;;;;13.47;2.87;;;8.90;99.90;;;;;;5062692;28;20203;-61
2021/03/14 10:25:51;;;;;;;8.43;2.73;;;9.20;99.90;;;;;;5066918;28;20283;-61
2021/03/14 10:28:23;;;;;;;8.10;2.70;;;9.90;99.90;;;;;;5062879;28;20647;-62
2021/03/14 10:31:02;;;;;;;8.27;3.00;;;11.00;99.90;;;;;;5066757;28;20184;-61
2021/03/14 10:33:31;;;;;;;7.17;2.80;;;11.50;99.90;;;;;;5064473;28;21437;-61
2021/03/14 10:36:05;;;;;;;11.23;2.60;;;11.70;99.90;;;;;;5061330;28;20196;-62
2021/03/14 10:38:39;;;;;;;10.50;2.80;;;11.90;99.90;;;;;;5066938;28;20197;-61
2021/03/14 10:41:12;;;;;;;8.23;2.63;;;11.80;99.90;;;;;;5072173;28;20643;-61
2021/03/14 10:43:48;;;;;;;10.13;4.50;;;11.40;99.90;;;;;;5069991;28;20196;-62
2021/03/14 10:46:32;;;;;;;6.20;2.50;;;11.10;99.90;;;;;;5070731;28;20268;-61
2021/03/14 10:49:02;;;;;;;6.43;2.50;;;10.70;99.90;;;;;;5071989;28;20645;-61
2021/03/14 10:51:32;;;;;;;10.37;3.10;;;10.20;99.90;;;;;;5069408;28;20200;-61
2021/03/14 10:54:03;;;;;;;9.87;2.80;;;9.90;99.90;;;;;;5071417;28;20306;-61
2021/03/14 10:56:35;;;;;;;9.77;3.67;;;9.80;99.90;;;;;;5073027;28;20192;-61
2021/03/14 10:59:03;;;;;;;15.10;3.27;;;9.70;99.90;;;;;;5060245;28;20288;-61
2021/03/14 11:01:36;;;;;;;10.97;3.03;;;9.80;99.90;;;;;;5073240;28;20773;-61
2021/03/14 11:04:06;;;;;;;6.03;2.73;;;9.80;99.90;;;;;;5068574;28;20716;-61
2021/03/14 11:06:36;;;;;;;8.83;3.30;;;9.60;99.90;;;;;;5067263;28;20235;-61
2021/03/14 11:09:05;;;;;;;17.60;5.47;;;9.50;99.90;;;;;;5067414;28;20206;-61
2021/03/14 11:11:43;;;;;;;8.80;3.90;;;10.10;99.90;;;;;;5064194;28;20223;-61
2021/03/14 11:14:28;;;;;;;8.43;2.73;;;11.70;99.90;;;;;;5067677;28;20231;-61
2021/03/14 11:17:12;;;;;;;12.70;4.20;;;13.40;99.90;;;;;;5066827;28;20302;-62
2021/03/14 11:19:42;;;;;;;8.30;3.00;;;14.20;99.90;;;;;;5066119;28;20278;-61
2021/03/14 11:22:13;;;;;;;11.33;4.27;;;14.80;99.90;;;;;;5067805;28;20683;-61
2021/03/14 11:24:41;;;;;;;5.30;2.27;;;13.90;99.90;;;;;;5066618;28;20227;-61
2021/03/14 11:27:09;;;;;;;8.40;3.50;;;12.90;99.90;;;;;;5063628;28;20694;-61
2021/03/14 11:29:36;;;;;;;13.27;4.67;;;12.20;99.90;;;;;;5066063;28;20223;-61
2021/03/14 11:32:09;;;;;;;11.13;3.73;;;11.50;99.90;;;;;;5066466;28;20283;-61
2021/03/14 11:34:37;;;;;;;8.47;3.13;;;11.50;99.90;;;;;;5066568;28;20234;-61
2021/03/14 11:37:05;;;;;;;6.03;3.20;;;12.30;99.90;;;;;;5065695;28;20189;-61
2021/03/14 11:39:33;;;;;;;4.27;2.87;;;13.20;99.90;;;;;;5068755;28;20228;-62
2021/03/14 11:42:01;;;;;;;5.33;2.23;;;14.00;99.90;;;;;;5068293;28;20207;-61
2021/03/14 11:44:29;;;;;;;11.43;3.60;;;14.00;99.90;;;;;;5067188;28;20188;-62
2021/03/14 11:46:56;;;;;;;19.77;8.40;;;13.60;99.90;;;;;;5066236;28;20709;-62
2021/03/14 11:49:24;;;;;;;4.97;2.50;;;13.30;99.90;;;;;;5061511;28;20295;-61
2021/03/14 11:51:52;;;;;;;4.17;2.17;;;13.10;99.90;;;;;;5068870;28;20287;-61
2021/03/14 11:54:19;;;;;;;5.93;2.30;;;12.90;99.90;;;;;;5057145;28;20207;-61
2021/03/14 11:56:51;;;;;;;8.13;3.03;;;13.20;99.90;;;;;;5065443;28;20212;-62
2021/03/14 11:59:20;;;;;;;4.43;2.50;;;13.60;99.90;;;;;;5062595;28;21475;-61
2021/03/14 12:01:49;;;;;;;5.47;2.63;;;13.70;99.90;;;;;;5063052;28;20290;-61
2021/03/14 12:04:19;;;;;;;9.53;2.83;;;13.50;99.90;;;;;;5060462;28;20708;-61
2021/03/14 12:06:47;;;;;;;4.90;2.07;;;12.90;99.90;;;;;;5064076;28;20241;-61
2021/03/14 12:09:17;;;;;;;4.17;2.43;;;12.40;99.90;;;;;;5065124;28;20448;-61
2021/03/14 12:11:44;;;;;;;6.83;2.10;;;11.80;99.90;;;;;;5065280;28;20215;-61
2021/03/14 12:14:12;;;;;;;6.37;2.30;;;11.40;99.90;;;;;;5066464;28;20249;-61
2021/03/14 12:16:39;;;;;;;11.03;2.43;;;11.40;99.90;;;;;;5064040;28;21665;-61
2021/03/14 12:19:07;;;;;;;5.33;2.33;;;11.20;99.90;;;;;;5062971;28;20207;-61
2021/03/14 12:21:35;;;;;;;12.07;3.20;;;11.10;99.90;;;;;;5064040;28;20223;-61
2021/03/14 12:24:02;;;;;;;7.70;3.63;;;11.70;99.90;;;;;;5066879;28;20200;-61
2021/03/14 12:26:30;;;;;;;12.03;4.10;;;12.50;99.90;;;;;;5068217;28;20314;-61
2021/03/14 12:28:58;;;;;;;6.57;2.40;;;12.60;99.90;;;;;;5071347;28;20210;-61
2021/03/14 12:31:26;;;;;;;5.47;2.20;;;12.30;99.90;;;;;;5066562;28;20279;-61
2021/03/14 12:33:54;;;;;;;7.13;2.10;;;11.90;99.90;;;;;;5062521;28;20196;-61
2021/03/14 12:36:22;;;;;;;10.57;2.40;;;11.70;99.90;;;;;;5067152;28;20212;-61
2021/03/14 12:38:49;;;;;;;11.47;2.60;;;11.50;99.90;;;;;;5068178;28;20212;-61
2021/03/14 12:41:17;;;;;;;8.20;2.47;;;11.20;99.90;;;;;;5066958;28;20589;-60
2021/03/14 12:43:44;;;;;;;8.73;2.20;;;11.00;99.90;;;;;;5067539;28;20782;-60
2021/03/14 12:46:11;;;;;;;11.03;3.10;;;10.80;99.90;;;;;;5062400;28;20192;-61
2021/03/14 12:48:40;;;;;;;9.60;3.00;;;10.70;99.90;;;;;;5066366;28;20648;-60
2021/03/14 12:51:08;;;;;;;11.03;2.73;;;11.00;99.90;;;;;;5056935;28;20199;-61
2021/03/14 12:53:35;;;;;;;12.30;3.00;;;11.60;99.90;;;;;;5066642;28;20205;-61
2021/03/14 12:56:03;;;;;;;6.63;2.40;;;12.20;99.90;;;;;;5070000;28;20285;-61
2021/03/14 12:58:30;;;;;;;3.57;2.03;;;12.70;99.90;;;;;;5051321;28;20206;-61
2021/03/14 13:00:57;;;;;;;6.33;2.10;;;12.50;99.90;;;;;;5071261;28;20287;-61
2021/03/14 13:03:25;;;;;;;7.80;2.60;;;12.20;99.90;;;;;;5070022;28;20190;-61
2021/03/14 13:05:54;;;;;;;10.93;2.60;;;12.20;99.90;;;;;;5070822;28;20195;-61
2021/03/14 13:08:22;;;;;;;6.87;1.90;;;12.40;99.90;;;;;;5069382;28;20423;-60